createdAt,value
2023-03-22T00:01:23.591Z,8.00
2023-03-22T00:03:52.428Z,8.10
2023-03-22T00:06:19.934Z,8.10
2023-03-22T00:08:51.019Z,8.10
2023-03-22T00:11:20.170Z,8.10
2023-03-22T00:13:47.596Z,8.10
2023-03-22T00:16:15.243Z,8.10
2023-03-22T00:18:42.616Z,8.10
2023-03-22T00:21:13.303Z,8.00
2023-03-22T00:23:41.165Z,8.00
2023-03-22T00:26:10.310Z,8.00
2023-03-22T00:28:39.241Z,8.10
2023-03-22T00:31:06.994Z,8.20
2023-03-22T00:33:34.250Z,8.30
2023-03-22T00:36:04.539Z,8.30
2023-03-22T00:38:43.885Z,8.30
2023-03-22T00:41:20.796Z,8.30
2023-03-22T00:43:49.237Z,8.10
2023-03-22T00:46:19.773Z,8.00
2023-03-22T00:48:48.096Z,8.10
2023-03-22T00:51:17.355Z,8.20
2023-03-22T00:53:45.486Z,8.30
2023-03-22T00:56:14.091Z,8.40
2023-03-22T00:59:00.261Z,8.40
2023-03-22T01:01:27.693Z,8.40
2023-03-22T01:03:55.624Z,8.30
2023-03-22T01:06:23.576Z,8.30
2023-03-22T01:08:51.588Z,8.40
2023-03-22T01:11:18.909Z,8.40
2023-03-22T01:13:47.809Z,8.40
2023-03-22T01:16:15.575Z,8.40
2023-03-22T01:18:42.973Z,8.50
2023-03-22T01:21:11.068Z,8.50
2023-03-22T01:23:38.778Z,8.50
2023-03-22T01:26:06.721Z,8.50
2023-03-22T01:28:33.977Z,8.40
2023-03-22T01:31:02.536Z,8.30
2023-03-22T01:33:30.812Z,8.40
2023-03-22T01:35:58.565Z,8.40
2023-03-22T01:38:26.848Z,8.40
2023-03-22T01:40:57.629Z,8.40
2023-03-22T01:43:25.865Z,8.20
2023-03-22T01:45:54.088Z,7.90
2023-03-22T01:48:33.553Z,7.80
2023-03-22T01:51:15.588Z,7.70
2023-03-22T01:54:07.707Z,7.60
2023-03-22T01:56:37.565Z,7.70
2023-03-22T01:59:07.602Z,7.60
2023-03-22T02:01:51.199Z,7.50
2023-03-22T02:04:23.279Z,7.50
2023-03-22T02:06:57.778Z,7.60
2023-03-22T02:09:29.704Z,7.70
2023-03-22T02:12:18.474Z,7.70
2023-03-22T02:15:07.259Z,7.80
2023-03-22T02:18:16.375Z,7.90
2023-03-22T02:21:21.254Z,7.90
2023-03-22T02:24:14.409Z,7.90
2023-03-22T02:27:06.546Z,7.90
2023-03-22T02:29:38.462Z,7.90
2023-03-22T02:32:32.240Z,7.90
2023-03-22T02:35:22.482Z,7.90
2023-03-22T02:38:15.159Z,7.90
2023-03-22T02:41:22.813Z,7.90
2023-03-22T02:44:01.525Z,7.90
2023-03-22T02:47:01.208Z,8.00
2023-03-22T02:49:34.587Z,8.00
2023-03-22T02:52:10.214Z,8.10
2023-03-22T02:54:55.338Z,8.10
2023-03-22T02:57:29.724Z,8.30
2023-03-22T02:59:58.125Z,8.40
2023-03-22T03:02:27.749Z,8.40
2023-03-22T03:04:57.228Z,8.50
2023-03-22T03:07:27.656Z,8.50
2023-03-22T03:09:56.282Z,8.50
2023-03-22T03:12:26.504Z,8.50
2023-03-22T03:14:56.271Z,8.50
2023-03-22T03:18:01.504Z,8.60
2023-03-22T03:20:42.468Z,8.60
2023-03-22T03:23:46.756Z,8.60
2023-03-22T03:26:28.769Z,8.70
2023-03-22T03:29:10.151Z,8.70
2023-03-22T03:31:52.497Z,8.60
2023-03-22T03:34:27.617Z,8.60
2023-03-22T03:37:09.319Z,8.60
2023-03-22T03:39:44.437Z,8.60
2023-03-22T03:42:16.402Z,8.70
2023-03-22T03:44:44.185Z,8.70
2023-03-22T03:47:12.610Z,8.70
2023-03-22T03:49:40.096Z,8.70
2023-03-22T03:52:07.959Z,8.70
2023-03-22T03:54:35.673Z,8.70
2023-03-22T03:57:06.043Z,8.70
2023-03-22T03:59:33.530Z,8.80
2023-03-22T04:02:06.578Z,8.70
2023-03-22T04:04:34.693Z,8.60
2023-03-22T04:07:05.291Z,8.60
2023-03-22T04:09:37.393Z,8.70
2023-03-22T04:12:18.810Z,8.60
2023-03-22T04:15:06.806Z,8.60
2023-03-22T04:17:33.974Z,8.60
2023-03-22T04:20:07.033Z,8.60
2023-03-22T04:22:40.835Z,8.60
2023-03-22T04:25:11.648Z,8.60
2023-03-22T04:27:42.831Z,8.60
2023-03-22T04:30:22.175Z,8.70
2023-03-22T04:33:06.687Z,8.70
2023-03-22T04:35:56.665Z,8.60
2023-03-22T04:38:29.297Z,8.50
2023-03-22T04:40:57.799Z,8.50
2023-03-22T04:43:35.451Z,8.40
2023-03-22T04:46:12.814Z,8.50
2023-03-22T04:48:56.159Z,8.50
2023-03-22T04:51:23.750Z,8.50
2023-03-22T04:54:06.088Z,8.40
2023-03-22T04:56:33.608Z,8.50
2023-03-22T04:59:01.377Z,8.50
2023-03-22T05:01:28.636Z,8.50
2023-03-22T05:04:08.405Z,8.50
2023-03-22T05:06:36.348Z,8.50
2023-03-22T05:09:13.642Z,8.60
2023-03-22T05:11:41.900Z,8.60
2023-03-22T05:14:23.042Z,8.60
2023-03-22T05:16:51.109Z,8.70
2023-03-22T05:19:22.277Z,8.70
2023-03-22T05:21:57.718Z,8.70
2023-03-22T05:24:31.268Z,8.80
2023-03-22T05:27:01.253Z,8.70
2023-03-22T05:29:28.803Z,8.80
2023-03-22T05:32:07.654Z,8.80
2023-03-22T05:34:37.895Z,8.80
2023-03-22T05:37:21.032Z,8.80
2023-03-22T05:39:55.178Z,8.70
2023-03-22T05:42:27.992Z,8.70
2023-03-22T05:44:55.252Z,8.70
2023-03-22T05:47:22.476Z,8.70
2023-03-22T05:49:59.100Z,8.70
2023-03-22T05:52:27.657Z,8.80
2023-03-22T05:55:12.507Z,8.80
2023-03-22T05:57:40.994Z,8.90
2023-03-22T06:00:13.361Z,9.00
2023-03-22T06:02:48.647Z,9.10
2023-03-22T06:05:17.437Z,9.10
2023-03-22T06:07:45.267Z,9.10
2023-03-22T06:10:18.082Z,9.20
2023-03-22T06:12:45.881Z,9.40
2023-03-22T06:15:22.812Z,9.50
2023-03-22T06:18:03.454Z,9.60
2023-03-22T06:20:35.309Z,9.70
2023-03-22T06:23:08.686Z,9.90
2023-03-22T06:25:37.061Z,10.10
2023-03-22T06:28:07.497Z,10.20
2023-03-22T06:30:36.084Z,10.30
2023-03-22T06:33:23.564Z,10.40
2023-03-22T06:35:58.788Z,10.50
2023-03-22T06:38:59.073Z,10.50
2023-03-22T06:41:26.392Z,10.40
2023-03-22T06:43:53.659Z,10.40
2023-03-22T06:46:53.692Z,10.40
2023-03-22T06:49:53.586Z,10.30
2023-03-22T06:52:28.082Z,10.30
2023-03-22T06:54:56.904Z,10.40
2023-03-22T06:57:25.440Z,10.40
2023-03-22T06:59:52.695Z,10.50
2023-03-22T07:02:21.319Z,10.60
2023-03-22T07:05:08.945Z,10.70
2023-03-22T07:07:36.310Z,10.80
2023-03-22T07:10:04.132Z,10.80
2023-03-22T07:12:31.815Z,10.90
2023-03-22T07:15:02.710Z,10.80
2023-03-22T07:18:02.889Z,10.80
2023-03-22T07:20:36.759Z,10.90
2023-03-22T07:23:05.288Z,11.00
2023-03-22T07:25:38.071Z,11.10
2023-03-22T07:28:19.205Z,11.30
2023-03-22T07:30:46.560Z,11.50
2023-03-22T07:33:14.613Z,11.60
2023-03-22T07:35:42.906Z,11.70
2023-03-22T07:38:10.826Z,11.80
2023-03-22T07:40:39.139Z,11.80
2023-03-22T07:43:07.076Z,11.90
2023-03-22T07:45:41.676Z,12.00
2023-03-22T07:48:28.796Z,12.00
2023-03-22T07:51:28.245Z,11.90
2023-03-22T07:53:55.672Z,11.80
2023-03-22T07:56:22.916Z,11.80
2023-03-22T07:58:50.516Z,11.90
2023-03-22T08:01:18.608Z,12.10
2023-03-22T08:04:08.238Z,12.20
2023-03-22T08:07:01.969Z,12.40
2023-03-22T08:09:29.310Z,12.40
2023-03-22T08:11:57.763Z,12.70
2023-03-22T08:14:35.847Z,12.80
2023-03-22T08:17:06.062Z,12.70
2023-03-22T08:19:34.130Z,13.20
2023-03-22T08:22:01.666Z,13.40
2023-03-22T08:24:48.096Z,13.20
2023-03-22T08:27:25.527Z,13.50
2023-03-22T08:29:52.847Z,14.40
2023-03-22T08:32:20.199Z,15.00
2023-03-22T08:34:47.677Z,15.80
2023-03-22T08:37:14.873Z,16.20
2023-03-22T08:39:44.288Z,17.30
2023-03-22T08:42:33.004Z,18.30
2023-03-22T08:45:03.482Z,17.90
2023-03-22T08:47:32.385Z,18.40
2023-03-22T08:50:03.696Z,18.30
2023-03-22T08:52:40.334Z,18.20
2023-03-22T08:55:14.327Z,18.30
2023-03-22T08:58:01.753Z,18.70
2023-03-22T09:00:48.476Z,19.90
2023-03-22T09:03:24.993Z,20.70
2023-03-22T09:05:53.376Z,21.10
2023-03-22T09:08:21.467Z,21.00
2023-03-22T09:10:54.550Z,21.20
2023-03-22T09:13:23.463Z,22.60
2023-03-22T09:15:56.597Z,23.50
2023-03-22T09:18:27.699Z,21.80
2023-03-22T09:20:58.563Z,21.40
2023-03-22T09:23:32.126Z,19.90
2023-03-22T09:26:01.708Z,18.90
2023-03-22T09:28:30.268Z,18.40
2023-03-22T09:31:05.627Z,17.60
2023-03-22T09:33:33.760Z,17.50
2023-03-22T09:36:01.382Z,18.70
2023-03-22T09:38:32.413Z,18.50
2023-03-22T09:41:07.109Z,18.30
2023-03-22T09:43:39.425Z,18.30
2023-03-22T09:46:24.111Z,17.40
2023-03-22T09:48:51.766Z,17.10
2023-03-22T09:51:41.169Z,17.40
2023-03-22T09:54:19.400Z,17.20
2023-03-22T09:56:58.624Z,16.50
2023-03-22T09:59:41.733Z,16.20
2023-03-22T10:02:33.548Z,16.10
2023-03-22T10:05:30.364Z,16.70
2023-03-22T10:08:27.197Z,16.70
2023-03-22T10:10:54.812Z,16.30
2023-03-22T10:13:34.070Z,16.20
2023-03-22T10:16:08.687Z,16.20
2023-03-22T10:18:40.687Z,16.20
2023-03-22T10:21:11.676Z,16.00
2023-03-22T10:23:46.569Z,16.00
2023-03-22T10:26:19.911Z,15.80
2023-03-22T10:28:56.387Z,16.40
2023-03-22T10:31:26.542Z,17.00
2023-03-22T10:34:11.426Z,17.30
2023-03-22T10:36:40.294Z,17.50
2023-03-22T10:39:24.043Z,17.00
2023-03-22T10:41:56.386Z,17.10
2023-03-22T10:44:28.570Z,17.60
2023-03-22T10:46:58.199Z,17.70
2023-03-22T10:49:31.897Z,18.40
2023-03-22T10:52:17.230Z,18.60
2023-03-22T10:54:44.406Z,18.80
2023-03-22T10:57:11.725Z,19.00
2023-03-22T10:59:54.008Z,18.30
2023-03-22T11:02:27.528Z,18.00
2023-03-22T11:04:58.024Z,17.60
2023-03-22T11:07:44.816Z,18.10
2023-03-22T11:10:23.890Z,18.70
2023-03-22T11:13:07.589Z,17.50
2023-03-22T11:15:39.650Z,17.10
2023-03-22T11:18:12.606Z,16.60
2023-03-22T11:20:42.409Z,16.60
2023-03-22T11:23:17.924Z,16.40
2023-03-22T11:25:47.564Z,16.30
2023-03-22T11:28:32.772Z,16.00
2023-03-22T11:31:10.986Z,15.70
2023-03-22T11:33:54.868Z,15.70
2023-03-22T11:36:22.367Z,15.80
2023-03-22T11:39:01.715Z,15.90
2023-03-22T11:41:36.909Z,15.90
2023-03-22T11:44:14.192Z,15.90
2023-03-22T11:46:52.862Z,16.00
2023-03-22T11:49:23.172Z,15.90
2023-03-22T11:51:51.900Z,15.90
2023-03-22T11:54:28.651Z,15.80
2023-03-22T11:57:01.098Z,16.20
2023-03-22T11:59:40.469Z,16.60
2023-03-22T12:02:46.249Z,16.40
2023-03-22T12:05:28.200Z,16.30
2023-03-22T12:08:05.616Z,16.20
2023-03-22T12:10:42.567Z,16.30
2023-03-22T12:13:21.092Z,16.60
2023-03-22T12:16:02.523Z,16.80
2023-03-22T12:18:38.389Z,16.60
2023-03-22T12:21:06.437Z,16.40
2023-03-22T12:23:37.651Z,16.20
2023-03-22T12:26:25.939Z,16.10
2023-03-22T12:29:15.426Z,15.70
2023-03-22T12:31:52.840Z,15.70
2023-03-22T12:34:28.829Z,15.50
2023-03-22T12:36:57.304Z,15.30
2023-03-22T12:39:33.598Z,15.30
2023-03-22T12:42:11.074Z,15.20
2023-03-22T12:44:42.317Z,14.90
2023-03-22T12:47:18.971Z,14.20
2023-03-22T12:50:03.754Z,13.40
2023-03-22T12:52:59.058Z,12.90
2023-03-22T12:55:32.576Z,12.70
2023-03-22T12:58:01.255Z,12.00
2023-03-22T13:00:48.951Z,11.80
2023-03-22T13:03:24.601Z,11.70
2023-03-22T13:06:20.047Z,11.70
2023-03-22T13:09:09.032Z,11.70
2023-03-22T13:11:36.762Z,11.60
2023-03-22T13:14:04.080Z,11.60
2023-03-22T13:16:53.394Z,11.60
2023-03-22T13:19:32.231Z,11.70
2023-03-22T13:22:19.220Z,11.70
2023-03-22T13:25:13.686Z,11.70
2023-03-22T13:28:16.564Z,11.70
2023-03-22T13:30:52.742Z,11.70
2023-03-22T13:33:30.690Z,11.80
2023-03-22T13:36:04.746Z,11.80
2023-03-22T13:38:37.937Z,11.80
2023-03-22T13:41:20.488Z,11.90
2023-03-22T13:43:50.171Z,11.90
2023-03-22T13:46:20.677Z,11.90
2023-03-22T13:48:48.813Z,11.90
2023-03-22T13:51:22.708Z,12.00
2023-03-22T13:54:01.036Z,12.20
2023-03-22T13:56:47.497Z,12.40
2023-03-22T13:59:24.712Z,12.50
2023-03-22T14:01:56.703Z,12.40
2023-03-22T14:04:42.517Z,12.40
2023-03-22T14:07:34.734Z,12.30
2023-03-22T14:10:41.967Z,12.30
2023-03-22T14:13:31.490Z,12.30
2023-03-22T14:16:40.341Z,12.40
2023-03-22T14:19:14.066Z,12.50
2023-03-22T14:21:48.199Z,12.50
